createdAt,value
2023-04-08T00:00:48.928Z,101335.84
2023-04-08T00:03:15.319Z,101343.03
2023-04-08T00:05:41.783Z,101337.88
2023-04-08T00:08:08.765Z,101344.28
2023-04-08T00:10:35.123Z,101344.28
2023-04-08T00:13:01.590Z,101345.13
2023-04-08T00:15:28.025Z,101345.91
2023-04-08T00:17:54.881Z,101348.59
2023-04-08T00:20:21.592Z,101342.63
2023-04-08T00:22:47.917Z,101344.28
2023-04-08T00:25:14.232Z,101349.03
2023-04-08T00:27:40.568Z,101338.50
2023-04-08T00:30:06.962Z,101339.94
2023-04-08T00:32:33.671Z,101347.38
2023-04-08T00:35:00.139Z,101341.19
2023-04-08T00:37:26.672Z,101346.34
2023-04-08T00:39:52.969Z,101344.91
2023-04-08T00:42:19.293Z,101354.59
2023-04-08T00:44:46.111Z,101366.53
2023-04-08T00:47:12.917Z,101360.97
2023-04-08T00:49:39.724Z,101361.19
2023-04-08T00:52:06.069Z,101366.53
2023-04-08T00:54:32.462Z,101357.47
2023-04-08T00:56:58.856Z,101366.53
2023-04-08T00:59:26.000Z,101359.31
2023-04-08T01:01:52.421Z,101363.84
2023-04-08T01:04:19.105Z,101373.75
2023-04-08T01:06:45.911Z,101371.25
2023-04-08T01:09:12.425Z,101377.25
2023-04-08T01:11:39.210Z,101361.56
2023-04-08T01:14:05.718Z,101367.97
2023-04-08T01:16:32.115Z,101370.66
2023-04-08T01:18:58.710Z,101371.47
2023-04-08T01:21:25.249Z,101372.28
2023-04-08T01:23:51.598Z,101366.13
2023-04-08T01:26:17.915Z,101370.00
2023-04-08T01:28:44.168Z,101367.31
2023-04-08T01:31:10.593Z,101363.19
2023-04-08T01:33:37.116Z,101364.88
2023-04-08T01:36:03.564Z,101358.66
2023-04-08T01:38:29.977Z,101357.84
2023-04-08T01:40:56.370Z,101362.19
2023-04-08T01:43:22.909Z,101360.31
2023-04-08T01:45:49.481Z,101368.56
2023-04-08T01:48:15.827Z,101372.25
2023-04-08T01:50:42.185Z,101374.94
2023-04-08T01:53:08.721Z,101378.47
2023-04-08T01:55:35.140Z,101379.69
2023-04-08T01:58:01.419Z,101382.97
2023-04-08T02:00:28.005Z,101391.03
2023-04-08T02:02:55.128Z,101391.22
2023-04-08T02:05:21.535Z,101385.84
2023-04-08T02:07:47.952Z,101393.09
2023-04-08T02:10:14.399Z,101384.22
2023-04-08T02:12:40.700Z,101383.38
2023-04-08T02:15:07.248Z,101389.75
2023-04-08T02:17:35.766Z,101374.72
2023-04-08T02:20:02.727Z,101387.91
2023-04-08T02:22:29.984Z,101390.78
2023-04-08T02:24:56.454Z,101394.31
2023-04-08T02:27:23.145Z,101395.78
2023-04-08T02:29:49.790Z,101393.28
2023-04-08T02:32:16.125Z,101389.97
2023-04-08T02:34:42.615Z,101399.69
2023-04-08T02:37:09.513Z,101411.59
2023-04-08T02:39:35.877Z,101407.72
2023-04-08T02:42:02.289Z,101409.75
2023-04-08T02:44:29.485Z,101416.75
2023-04-08T02:46:56.366Z,101421.31
2023-04-08T02:49:23.277Z,101418.81
2023-04-08T02:51:49.885Z,101422.09
2023-04-08T02:54:16.527Z,101431.19
2023-04-08T02:56:43.007Z,101427.88
2023-04-08T02:59:09.381Z,101430.56
2023-04-08T03:01:36.121Z,101432.22
2023-04-08T03:04:02.785Z,101424.38
2023-04-08T03:06:29.113Z,101425.41
2023-04-08T03:08:55.452Z,101426.22
2023-04-08T03:11:21.864Z,101434.25
2023-04-08T03:13:48.362Z,101440.63
2023-04-08T03:16:14.717Z,101436.94
2023-04-08T03:18:41.047Z,101437.97
2023-04-08T03:21:07.360Z,101441.66
2023-04-08T03:23:33.728Z,101442.47
2023-04-08T03:26:00.175Z,101448.88
2023-04-08T03:28:26.757Z,101448.69
2023-04-08T03:30:53.494Z,101441.03
2023-04-08T03:33:19.796Z,101446.38
2023-04-08T03:35:46.203Z,101444.94
2023-04-08T03:38:12.738Z,101443.09
2023-04-08T03:40:39.076Z,101447.59
2023-04-08T03:43:05.370Z,101452.78
2023-04-08T03:45:31.657Z,101451.97
2023-04-08T03:47:58.057Z,101454.41
2023-04-08T03:50:24.584Z,101462.69
2023-04-08T03:52:51.125Z,101475.25
2023-04-08T03:55:17.554Z,101470.06
2023-04-08T03:57:44.080Z,101470.91
2023-04-08T04:00:10.430Z,101472.75
2023-04-08T04:02:36.868Z,101465.75
2023-04-08T04:05:03.386Z,101470.25
2023-04-08T04:07:29.729Z,101469.44
2023-04-08T04:09:56.083Z,101463.88
2023-04-08T04:12:22.573Z,101473.78
2023-04-08T04:14:48.936Z,101472.94
2023-04-08T04:17:15.371Z,101473.59
2023-04-08T04:19:41.706Z,101472.13
2023-04-08T04:22:08.153Z,101486.34
2023-04-08T04:24:34.595Z,101484.69
2023-04-08T04:27:00.917Z,101491.06
2023-04-08T04:29:27.454Z,101502.59
2023-04-08T04:31:53.790Z,101499.13
2023-04-08T04:34:20.161Z,101499.91
2023-04-08T04:36:46.464Z,101490.22
2023-04-08T04:39:12.801Z,101509.00
2023-04-08T04:41:39.774Z,101506.31
2023-04-08T04:44:06.099Z,101510.00
2023-04-08T04:46:32.501Z,101509.00
2023-04-08T04:48:59.347Z,101513.06
2023-04-08T04:51:25.651Z,101524.44
2023-04-08T04:53:51.991Z,101520.91
2023-04-08T04:56:18.298Z,101530.78
2023-04-08T04:58:44.595Z,101526.47
2023-04-08T05:01:10.982Z,101530.78
2023-04-08T05:03:37.910Z,101529.16
2023-04-08T05:06:04.273Z,101534.50
2023-04-08T05:08:30.811Z,101543.19
2023-04-08T05:10:57.567Z,101541.72
2023-04-08T05:13:24.069Z,101537.38
2023-04-08T05:15:50.505Z,101539.06
2023-04-08T05:18:16.899Z,101549.13
2023-04-08T05:20:43.573Z,101549.97
2023-04-08T05:23:10.003Z,101557.16
2023-04-08T05:25:36.644Z,101553.44
2023-04-08T05:28:03.293Z,101553.63
2023-04-08T05:30:30.042Z,101551.78
2023-04-08T05:32:59.306Z,101559.00
2023-04-08T05:35:26.575Z,101565.00
2023-04-08T05:37:53.071Z,101566.22
2023-04-08T05:40:19.937Z,101568.91
2023-04-08T05:42:46.633Z,101564.56
2023-04-08T05:45:13.000Z,101567.25
2023-04-08T05:47:39.515Z,101563.72
2023-04-08T05:50:06.092Z,101567.44
2023-04-08T05:52:32.553Z,101571.94
2023-04-08T05:54:58.871Z,101572.78
2023-04-08T05:57:25.193Z,101581.00
2023-04-08T05:59:51.600Z,101573.81
2023-04-08T06:02:18.078Z,101572.13
2023-04-08T06:04:44.521Z,101577.50
2023-04-08T06:07:10.995Z,101577.31
2023-04-08T06:09:37.427Z,101582.22
2023-04-08T06:12:04.019Z,101582.03
2023-04-08T06:14:30.491Z,101586.13
2023-04-08T06:16:56.914Z,101592.94
2023-04-08T06:19:23.233Z,101594.78
2023-04-08T06:21:49.697Z,101591.47
2023-04-08T06:24:16.444Z,101610.22
2023-04-08T06:26:42.737Z,101605.06
2023-04-08T06:29:09.061Z,101613.28
2023-04-08T06:31:35.478Z,101610.41
2023-04-08T06:34:02.088Z,101618.25
2023-04-08T06:36:28.412Z,101625.66
2023-04-08T06:38:54.904Z,101618.63
2023-04-08T06:41:21.334Z,101621.31
2023-04-08T06:43:47.774Z,101621.94
2023-04-08T06:46:14.344Z,101624.63
2023-04-08T06:48:41.204Z,101628.50
2023-04-08T06:51:07.542Z,101637.38
2023-04-08T06:53:33.885Z,101631.41
2023-04-08T06:56:00.197Z,101634.09
2023-04-08T06:58:27.027Z,101640.06
2023-04-08T07:00:53.400Z,101647.25
2023-04-08T07:03:20.163Z,101644.78
2023-04-08T07:05:46.539Z,101649.31
2023-04-08T07:08:13.273Z,101653.81
2023-04-08T07:10:39.805Z,101650.34
2023-04-08T07:13:06.188Z,101653.81
2023-04-08T07:15:32.745Z,101655.88
2023-04-08T07:17:59.228Z,101656.06
2023-04-08T07:20:25.854Z,101662.25
2023-04-08T07:22:52.200Z,101657.09
2023-04-08T07:25:19.161Z,101657.91
2023-04-08T07:27:45.540Z,101673.53
2023-04-08T07:30:11.974Z,101674.00
2023-04-08T07:32:38.303Z,101682.88
2023-04-08T07:35:04.669Z,101674.47
2023-04-08T07:37:30.978Z,101676.75
2023-04-08T07:39:57.524Z,101678.44
2023-04-08T07:42:24.002Z,101683.78
2023-04-08T07:44:50.627Z,101686.47
2023-04-08T07:47:17.081Z,101684.78
2023-04-08T07:49:43.399Z,101698.19
2023-04-08T07:52:09.767Z,101691.63
2023-04-08T07:54:36.271Z,101705.22
2023-04-08T07:57:02.653Z,101697.81
2023-04-08T07:59:29.763Z,101701.06
2023-04-08T08:01:56.180Z,101707.41
2023-04-08T08:04:23.120Z,101699.47
2023-04-08T08:06:49.610Z,101709.19
2023-04-08T08:09:15.967Z,101712.03
2023-04-08T08:11:42.382Z,101710.94
2023-04-08T08:14:08.676Z,101721.00
2023-04-08T08:16:35.420Z,101716.28
2023-04-08T08:19:01.893Z,101712.59
2023-04-08T08:21:28.335Z,101723.03
2023-04-08T08:23:54.883Z,101721.47
2023-04-08T08:26:21.259Z,101725.16
2023-04-08T08:28:47.601Z,101729.59
2023-04-08T08:31:14.131Z,101732.00
2023-04-08T08:33:40.708Z,101731.16
2023-04-08T08:36:07.118Z,101734.75
2023-04-08T08:38:33.633Z,101740.84
2023-04-08T08:40:59.984Z,101735.88
2023-04-08T08:43:26.648Z,101733.84
2023-04-08T08:45:53.425Z,101743.06
2023-04-08T08:48:20.051Z,101748.50
2023-04-08T08:50:46.606Z,101744.38
2023-04-08T08:53:13.153Z,101750.34
2023-04-08T08:56:05.504Z,101759.81
2023-04-08T08:58:26.061Z,101753.94
2023-04-08T09:00:52.392Z,101756.00
2023-04-08T09:03:18.939Z,101759.97
2023-04-08T09:05:45.723Z,101762.72
2023-04-08T09:08:12.192Z,101763.34
2023-04-08T09:10:38.737Z,101763.09
2023-04-08T09:13:05.070Z,101764.75
2023-04-08T09:15:31.678Z,101768.63
2023-04-08T09:17:58.081Z,101772.34
2023-04-08T09:20:24.594Z,101779.53
2023-04-08T09:22:50.915Z,101775.81
2023-04-08T09:25:17.320Z,101773.16
2023-04-08T09:27:43.658Z,101789.34
2023-04-08T09:30:10.024Z,101787.56
2023-04-08T09:32:36.511Z,101798.25
2023-04-08T09:35:04.302Z,101791.25
2023-04-08T09:37:32.486Z,101794.56
2023-04-08T09:39:59.218Z,101796.63
2023-04-08T09:42:25.639Z,101792.09
2023-04-08T09:44:52.078Z,101804.00
2023-04-08T09:47:18.373Z,101806.69
2023-04-08T09:49:44.782Z,101795.97
2023-04-08T09:52:11.158Z,101795.31
2023-04-08T09:54:37.810Z,101810.34
2023-04-08T09:57:04.146Z,101804.38
2023-04-08T09:59:30.446Z,101809.38
2023-04-08T10:01:57.045Z,101807.06
2023-04-08T10:04:23.645Z,101804.38
2023-04-08T10:06:50.468Z,101803.53
2023-04-08T10:09:17.044Z,101808.06
2023-04-08T10:11:43.362Z,101806.38
2023-04-08T10:14:09.696Z,101805.19
2023-04-08T10:16:36.180Z,101814.06
2023-04-08T10:19:02.875Z,101810.09
2023-04-08T10:21:29.309Z,101813.59
2023-04-08T10:23:55.578Z,101816.28
2023-04-08T10:26:21.966Z,101815.44
2023-04-08T10:28:48.346Z,101820.78
2023-04-08T10:31:14.696Z,101824.50
2023-04-08T10:33:41.312Z,101829.00
2023-04-08T10:36:07.797Z,101823.84
2023-04-08T10:38:34.563Z,101830.88
2023-04-08T10:41:01.017Z,101828.19
2023-04-08T10:43:27.514Z,101833.56
2023-04-08T10:45:53.989Z,101827.34
2023-04-08T10:48:20.560Z,101831.88
2023-04-08T10:50:46.965Z,101835.38
2023-04-08T10:53:13.292Z,101834.53
2023-04-08T10:55:39.675Z,101844.25
2023-04-08T10:58:06.030Z,101844.03
2023-04-08T11:00:32.380Z,101846.44
2023-04-08T11:02:59.300Z,101847.56
2023-04-08T11:05:25.700Z,101851.09
2023-04-08T11:07:52.178Z,101847.56
2023-04-08T11:10:18.618Z,101850.25
2023-04-08T11:12:45.025Z,101847.56
2023-04-08T11:15:11.358Z,101850.44
2023-04-08T11:17:37.871Z,101849.41
2023-04-08T11:20:04.345Z,101845.06
2023-04-08T11:22:30.692Z,101844.25
2023-04-08T11:24:57.462Z,101843.41
2023-04-08T11:27:23.834Z,101850.44
2023-04-08T11:29:50.151Z,101844.63
2023-04-08T11:32:16.441Z,101845.47
2023-04-08T11:34:42.934Z,101843.78
2023-04-08T11:37:09.459Z,101846.28
2023-04-08T11:39:35.918Z,101843.59
2023-04-08T11:42:02.249Z,101853.66
2023-04-08T11:44:28.575Z,101852.66
2023-04-08T11:46:54.894Z,101857.81
2023-04-08T11:49:21.404Z,101852.66
2023-04-08T11:51:47.706Z,101850.81
2023-04-08T11:54:14.049Z,101856.16
2023-04-08T11:56:40.453Z,101846.28
2023-04-08T11:59:07.023Z,101848.78
2023-04-08T12:01:33.444Z,101852.66
2023-04-08T12:04:00.297Z,101846.84
2023-04-08T12:06:26.893Z,101846.84
2023-04-08T12:08:53.275Z,101860.41
2023-04-08T12:11:20.333Z,101858.34
2023-04-08T12:13:46.688Z,101854.88
2023-04-08T12:16:13.078Z,101852.38
2023-04-08T12:18:39.783Z,101866.38
2023-04-08T12:21:06.405Z,101856.06
2023-04-08T12:23:32.767Z,101853.56
2023-04-08T12:25:59.475Z,101856.06
2023-04-08T12:28:25.772Z,101858.53
2023-04-08T12:30:52.201Z,101854.03
2023-04-08T12:33:18.488Z,101851.16
2023-04-08T12:35:45.010Z,101853.00
2023-04-08T12:38:11.439Z,101858.34
2023-04-08T12:40:37.883Z,101854.88
2023-04-08T12:43:04.444Z,101848.22
2023-04-08T12:45:30.998Z,101856.06
2023-04-08T12:47:57.430Z,101856.06
2023-04-08T12:50:23.831Z,101857.91
2023-04-08T12:52:50.422Z,101854.56
2023-04-08T12:55:16.703Z,101852.91
2023-04-08T12:57:43.141Z,101852.72
2023-04-08T13:00:09.653Z,101851.97
2023-04-08T13:02:36.083Z,101849.69
2023-04-08T13:05:02.520Z,101854.66
2023-04-08T13:07:29.214Z,101847.66
2023-04-08T13:09:55.678Z,101853.00
2023-04-08T13:12:22.125Z,101851.16
2023-04-08T13:14:48.536Z,101846.34
2023-04-08T13:17:14.869Z,101849.69
2023-04-08T13:19:41.529Z,101850.31
2023-04-08T13:22:07.900Z,101853.56
2023-04-08T13:24:34.574Z,101859.56
2023-04-08T13:27:00.882Z,101869.44
2023-04-08T13:29:27.162Z,101870.44
2023-04-08T13:31:53.629Z,101873.13
2023-04-08T13:34:20.055Z,101874.97
2023-04-08T13:36:46.512Z,101874.97
2023-04-08T13:39:12.802Z,101883.38
2023-04-08T13:41:39.091Z,101878.66
2023-04-08T13:44:05.495Z,101875.63
2023-04-08T13:46:31.957Z,101882.63
2023-04-08T13:48:58.386Z,101881.31
2023-04-08T13:51:25.006Z,101874.50
2023-04-08T13:53:51.742Z,101877.84
2023-04-08T13:56:18.288Z,101885.31
2023-04-08T13:58:49.693Z,101889.84
2023-04-08T14:01:18.812Z,101881.16
2023-04-08T14:03:45.444Z,101890.47
2023-04-08T14:06:11.774Z,101890.03
2023-04-08T14:08:38.103Z,101889.00
2023-04-08T14:11:04.651Z,101885.50
2023-04-08T14:13:31.084Z,101884.00
2023-04-08T14:15:57.396Z,101885.69
2023-04-08T14:18:23.970Z,101892.69
2023-04-08T14:20:50.266Z,101884.50
2023-04-08T14:23:17.412Z,101893.53
2023-04-08T14:25:43.857Z,101887.34
2023-04-08T14:28:10.199Z,101893.53
2023-04-08T14:30:36.891Z,101891.69
2023-04-08T14:33:03.367Z,101896.00
2023-04-08T14:35:29.803Z,101888.19
2023-04-08T14:37:56.176Z,101892.69
2023-04-08T14:40:22.751Z,101886.50
2023-04-08T14:42:49.165Z,101890.03
2023-04-08T14:45:15.494Z,101891.84
2023-04-08T14:47:41.849Z,101892.69
2023-04-08T14:50:08.178Z,101892.88
2023-04-08T14:52:34.604Z,101893.06
2023-04-08T14:55:01.006Z,101901.25
2023-04-08T14:57:27.743Z,101904.78
2023-04-08T14:59:54.123Z,101897.91
2023-04-08T15:02:20.688Z,101902.09
2023-04-08T15:04:47.441Z,101900.44
2023-04-08T15:07:13.909Z,101904.97
2023-04-08T15:09:40.198Z,101891.22
2023-04-08T15:12:07.067Z,101902.09
2023-04-08T15:14:33.412Z,101901.94
2023-04-08T15:16:59.967Z,101902.09
2023-04-08T15:19:26.476Z,101902.09
2023-04-08T15:21:53.171Z,101904.97
2023-04-08T15:24:20.170Z,101904.13
2023-04-08T15:26:46.733Z,101909.47
2023-04-08T15:29:13.087Z,101906.63
2023-04-08T15:31:39.674Z,101899.59
2023-04-08T15:34:06.296Z,101896.25
2023-04-08T15:36:32.824Z,101907.78
2023-04-08T15:38:59.165Z,101904.97
2023-04-08T15:41:25.444Z,101909.66
2023-04-08T15:43:51.860Z,101903.28
2023-04-08T15:46:18.630Z,101905.28
2023-04-08T15:48:45.130Z,101904.28
2023-04-08T15:51:11.702Z,101917.66
2023-04-08T15:53:38.237Z,101915.16
2023-04-08T15:56:04.786Z,101913.13
2023-04-08T15:58:31.110Z,101912.50
2023-04-08T16:00:57.434Z,101913.69
2023-04-08T16:03:24.012Z,101906.47
2023-04-08T16:05:50.512Z,101906.47
2023-04-08T16:08:16.877Z,101912.00
2023-04-08T16:10:43.145Z,101916.53
2023-04-08T16:13:09.784Z,101913.69
2023-04-08T16:15:36.284Z,101916.38
2023-04-08T16:18:02.619Z,101917.19
2023-04-08T16:20:28.980Z,101927.06
2023-04-08T16:22:55.250Z,101918.03
2023-04-08T16:25:21.573Z,101921.72
2023-04-08T16:27:48.393Z,101915.69
2023-04-08T16:30:15.068Z,101920.69
2023-04-08T16:32:41.473Z,101916.38
2023-04-08T16:35:07.961Z,101923.56
2023-04-08T16:37:34.474Z,101935.09
2023-04-08T16:40:01.193Z,101936.75
2023-04-08T16:42:27.856Z,101932.25
2023-04-08T16:44:54.212Z,101939.09
2023-04-08T16:47:20.996Z,101933.72
2023-04-08T16:49:47.733Z,101941.94
2023-04-08T16:52:14.191Z,101939.44
2023-04-08T16:54:40.593Z,101937.78
2023-04-08T16:57:06.968Z,101938.59
2023-04-08T16:59:33.333Z,101942.28
2023-04-08T17:01:59.900Z,101944.78
2023-04-08T17:04:26.658Z,101953.84
2023-04-08T17:06:53.200Z,101944.97
2023-04-08T17:09:19.680Z,101947.63
2023-04-08T17:11:46.169Z,101946.78
2023-04-08T17:14:12.478Z,101955.50
2023-04-08T17:16:38.905Z,101959.81
2023-04-08T17:19:05.197Z,101960.00
2023-04-08T17:21:31.877Z,101957.31
2023-04-08T17:23:58.433Z,101955.50
2023-04-08T17:26:24.835Z,101972.56
2023-04-08T17:28:51.366Z,101964.53
2023-04-08T17:31:17.840Z,101977.25
2023-04-08T17:33:44.360Z,101974.91
2023-04-08T17:36:10.663Z,101980.66
2023-04-08T17:38:37.799Z,101985.63
2023-04-08T17:41:04.614Z,101983.34
2023-04-08T17:43:31.036Z,101981.28
2023-04-08T17:45:57.411Z,101982.31
2023-04-08T17:48:23.850Z,101988.31
2023-04-08T17:50:50.243Z,101986.47
2023-04-08T17:53:16.760Z,101990.00
2023-04-08T17:55:43.119Z,101990.81
2023-04-08T17:58:09.847Z,101999.00
2023-04-08T18:00:36.500Z,101999.84
2023-04-08T18:03:03.278Z,102002.34
2023-04-08T18:05:29.937Z,102008.56
2023-04-08T18:07:56.999Z,102013.06
2023-04-08T18:10:23.689Z,102009.53
2023-04-08T18:12:50.791Z,102015.91
2023-04-08T18:15:21.305Z,102023.75
2023-04-08T18:17:47.859Z,102025.75
2023-04-08T18:20:14.200Z,102026.44
2023-04-08T18:22:40.487Z,102038.00
2023-04-08T18:25:06.887Z,102035.66
2023-04-08T18:27:33.228Z,102031.84
2023-04-08T18:29:59.585Z,102037.53
2023-04-08T18:32:25.917Z,102044.91
2023-04-08T18:34:52.569Z,102044.06
2023-04-08T18:37:18.990Z,102051.94
2023-04-08T18:39:45.494Z,102055.63
2023-04-08T18:42:12.177Z,102055.44
2023-04-08T18:44:38.453Z,102051.28
2023-04-08T18:47:04.778Z,102055.63
2023-04-08T18:49:32.023Z,102053.41
2023-04-08T18:52:02.944Z,102054.59
2023-04-08T18:54:30.177Z,102065.44
2023-04-08T18:56:56.595Z,102056.22
2023-04-08T18:59:22.878Z,102069.44
2023-04-08T19:01:49.294Z,102061.41
2023-04-08T19:04:15.831Z,102062.88
2023-04-08T19:06:42.186Z,102064.75
2023-04-08T19:09:08.710Z,102054.84
2023-04-08T19:11:35.077Z,102057.53
2023-04-08T19:14:01.701Z,102061.88
2023-04-08T19:16:28.000Z,102060.88
2023-04-08T19:18:54.414Z,102060.88
2023-04-08T19:21:20.774Z,102061.88
2023-04-08T19:23:47.327Z,102058.22
2023-04-08T19:26:13.686Z,102057.34
2023-04-08T19:28:40.057Z,102057.19
2023-04-08T19:31:06.491Z,102053.84
2023-04-08T19:33:33.141Z,102056.34
2023-04-08T19:35:59.599Z,102050.19
2023-04-08T19:38:26.973Z,102054.50
2023-04-08T19:40:53.493Z,102048.13
2023-04-08T19:43:19.878Z,102050.00
2023-04-08T19:45:46.260Z,102050.81
2023-04-08T19:48:12.834Z,102048.13
2023-04-08T19:50:39.614Z,102052.47
2023-04-08T19:53:06.252Z,102057.19
2023-04-08T19:55:32.539Z,102054.50
2023-04-08T19:57:59.614Z,102051.84
2023-04-08T20:00:26.245Z,102058.03
2023-04-08T20:02:52.916Z,102053.66
2023-04-08T20:05:19.546Z,102051.84
2023-04-08T20:07:46.123Z,102060.03
2023-04-08T20:10:12.454Z,102059.03
2023-04-08T20:12:39.176Z,102058.38
2023-04-08T20:15:06.518Z,102054.69
2023-04-08T20:17:33.155Z,102066.41
2023-04-08T20:19:59.517Z,102056.72
2023-04-08T20:22:25.872Z,102066.59
2023-04-08T20:24:52.202Z,102062.06
2023-04-08T20:27:19.249Z,102057.72
2023-04-08T20:29:45.529Z,102058.56
2023-04-08T20:32:12.058Z,102071.94
2023-04-08T20:34:38.485Z,102064.25
2023-04-08T20:37:04.838Z,102062.25
2023-04-08T20:39:31.184Z,102057.22
2023-04-08T20:41:57.532Z,102063.22
2023-04-08T20:44:23.917Z,102051.53
2023-04-08T20:46:50.276Z,102059.91
2023-04-08T20:49:16.843Z,102055.91
2023-04-08T20:51:43.142Z,102057.59
2023-04-08T20:54:09.665Z,102057.63
2023-04-08T20:56:36.124Z,102058.66
2023-04-08T20:59:02.534Z,102052.09
2023-04-08T21:01:29.067Z,102054.44
2023-04-08T21:03:55.597Z,102056.47
2023-04-08T21:06:21.898Z,102053.59
2023-04-08T21:08:48.215Z,102058.31
2023-04-08T21:11:14.620Z,102053.47
2023-04-08T21:13:40.970Z,102058.13
2023-04-08T21:16:08.374Z,102055.28
2023-04-08T21:18:34.725Z,102061.63
2023-04-08T21:21:00.995Z,102050.75
2023-04-08T21:23:27.405Z,102056.78
2023-04-08T21:25:53.805Z,102063.94
2023-04-08T21:28:20.154Z,102065.13
2023-04-08T21:30:46.472Z,102060.63
2023-04-08T21:33:12.872Z,102061.09
2023-04-08T21:35:39.572Z,102068.47
2023-04-08T21:38:06.070Z,102058.56
2023-04-08T21:40:32.468Z,102059.78
2023-04-08T21:42:58.775Z,102064.06
2023-04-08T21:45:25.077Z,102064.28
2023-04-08T21:47:51.392Z,102060.44
2023-04-08T21:50:17.791Z,102063.94
2023-04-08T21:52:44.179Z,102066.78
2023-04-08T21:55:10.603Z,102066.44
2023-04-08T21:57:37.286Z,102071.81
2023-04-08T22:00:03.687Z,102067.94
2023-04-08T22:02:31.719Z,102064.75
2023-04-08T22:04:58.226Z,102065.72
2023-04-08T22:07:25.103Z,102073.63
2023-04-08T22:09:51.666Z,102061.94
2023-04-08T22:12:18.108Z,102055.41
2023-04-08T22:14:44.621Z,102057.22
2023-04-08T22:17:11.556Z,102066.09
2023-04-08T22:19:37.917Z,102060.94
2023-04-08T22:22:04.274Z,102055.19
2023-04-08T22:24:30.816Z,102061.09
2023-04-08T22:26:57.145Z,102062.75
2023-04-08T22:29:23.703Z,102064.91
2023-04-08T22:31:50.101Z,102068.47
2023-04-08T22:34:16.520Z,102068.97
2023-04-08T22:36:43.172Z,102069.13
2023-04-08T22:39:09.560Z,102065.59
2023-04-08T22:41:35.897Z,102069.44
2023-04-08T22:44:02.296Z,102063.91
2023-04-08T22:46:28.731Z,102068.41
2023-04-08T22:48:55.402Z,102068.25
2023-04-08T22:51:21.773Z,102067.78
2023-04-08T22:53:48.251Z,102065.78
2023-04-08T22:56:14.864Z,102067.94
2023-04-08T22:58:41.162Z,102072.16
2023-04-08T23:01:07.571Z,102077.47
2023-04-08T23:03:34.026Z,102075.00
2023-04-08T23:06:00.568Z,102080.84
2023-04-08T23:08:27.413Z,102076.69
2023-04-08T23:10:54.116Z,102084.03
2023-04-08T23:13:20.540Z,102088.84
2023-04-08T23:15:47.180Z,102089.19
2023-04-08T23:18:13.687Z,102085.19
2023-04-08T23:20:40.019Z,102086.50
2023-04-08T23:23:06.504Z,102083.09
2023-04-08T23:25:32.860Z,102087.94
2023-04-08T23:27:59.152Z,102085.00
2023-04-08T23:30:26.131Z,102088.16
2023-04-08T23:32:52.503Z,102089.66
2023-04-08T23:35:18.866Z,102082.69
2023-04-08T23:37:45.171Z,102090.00
2023-04-08T23:40:11.700Z,102088.34
2023-04-08T23:42:38.114Z,102091.63
2023-04-08T23:45:04.538Z,102085.69
2023-04-08T23:47:31.260Z,102088.34
2023-04-08T23:49:58.073Z,102089.94
2023-04-08T23:52:24.433Z,102090.16
2023-04-08T23:54:50.810Z,102078.69
2023-04-08T23:57:17.731Z,102081.31
2023-04-08T23:59:44.017Z,102074.31
